Time;durP1;ratioP1;P1;durP2;ratioP2;P2;SDS_P1;SDS_P2;PMS_P1;PMS_P2;Temp;Humidity;BMP_temperature;BMP_pressure;BME280_temperature;BME280_humidity;BME280_pressure;Samples;Min_cycle;Max_cycle;Signal;HPM_P1;HPM_P2
2021/05/17 00:00:15;;;;;;;12.40;8.77;;;22.20;89.40;;;;;;4995463;28;20038;-81
2021/05/17 00:02:42;;;;;;;11.98;8.90;;;22.20;89.40;;;;;;5012769;28;20468;-81
2021/05/17 00:05:09;;;;;;;12.05;8.85;;;22.10;89.30;;;;;;4995305;28;20133;-82
2021/05/17 00:07:36;;;;;;;11.68;9.00;;;22.10;89.30;;;;;;4995134;28;20037;-81
2021/05/17 00:10:05;;;;;;;13.45;10.48;;;22.10;89.30;;;;;;5013100;28;20029;-81
2021/05/17 00:12:31;;;;;;;15.25;10.40;;;22.10;89.40;;;;;;5012617;28;20479;-81
2021/05/17 00:14:57;;;;;;;16.20;11.00;;;22.20;89.50;;;;;;5012932;28;20034;-82
2021/05/17 00:17:23;;;;;;;13.32;10.60;;;22.10;89.40;;;;;;4995059;28;20495;-81
2021/05/17 00:19:49;;;;;;;15.60;11.57;;;22.10;89.50;;;;;;4995525;28;20037;-81
2021/05/17 00:22:15;;;;;;;14.10;11.13;;;22.20;89.50;;;;;;4995296;28;20054;-81
2021/05/17 00:24:41;;;;;;;16.08;11.93;;;22.10;89.50;;;;;;4995340;28;20061;-81
2021/05/17 00:27:07;;;;;;;14.98;11.82;;;22.10;89.50;;;;;;5012660;28;20145;-82
2021/05/17 00:29:35;;;;;;;15.48;12.13;;;22.10;89.50;;;;;;4995289;28;20400;-81
2021/05/17 00:32:01;;;;;;;16.30;12.52;;;22.10;89.50;;;;;;4979799;28;20113;-81
2021/05/17 00:34:27;;;;;;;17.13;12.75;;;22.10;89.50;;;;;;4995058;28;20138;-81
2021/05/17 00:36:54;;;;;;;15.85;12.05;;;22.10;89.50;;;;;;4979177;28;20030;-81
2021/05/17 00:39:21;;;;;;;18.58;13.32;;;22.10;89.60;;;;;;4996256;28;20404;-81
2021/05/17 00:41:47;;;;;;;14.93;11.50;;;22.10;89.60;;;;;;5004135;28;20030;-81
2021/05/17 00:44:13;;;;;;;16.98;12.95;;;22.10;89.60;;;;;;5034871;28;20033;-82
2021/05/17 00:46:40;;;;;;;15.45;12.00;;;22.10;89.60;;;;;;5018673;28;20034;-80
2021/05/17 00:49:06;;;;;;;17.63;13.30;;;22.10;89.60;;;;;;5033997;28;20014;-79
2021/05/17 00:51:33;;;;;;;17.13;12.48;;;22.10;89.60;;;;;;4980652;28;20443;-81
2021/05/17 00:54:00;;;;;;;16.90;12.80;;;22.10;89.60;;;;;;5014870;28;20048;-81
2021/05/17 00:56:26;;;;;;;17.15;13.40;;;22.10;89.60;;;;;;4998091;28;20030;-81
2021/05/17 00:58:52;;;;;;;16.15;12.90;;;22.10;89.60;;;;;;5017400;28;20044;-81
2021/05/17 01:01:18;;;;;;;15.98;11.65;;;22.20;89.70;;;;;;5016194;28;20022;-81
2021/05/17 01:03:44;;;;;;;16.85;12.98;;;22.10;89.70;;;;;;5016623;28;20042;-80
2021/05/17 01:06:10;;;;;;;19.35;13.70;;;22.10;89.70;;;;;;4998666;28;20038;-84
2021/05/17 01:08:49;;;;;;;18.08;13.35;;;22.10;89.70;;;;;;4999296;28;20060;-82
2021/05/17 01:11:17;;;;;;;16.42;13.10;;;22.10;89.70;;;;;;4998644;28;20057;-82
2021/05/17 01:13:44;;;;;;;17.30;13.38;;;22.10;89.70;;;;;;4999376;28;20121;-82
2021/05/17 01:16:10;;;;;;;17.63;13.98;;;22.10;89.70;;;;;;4999517;28;20029;-81
2021/05/17 01:18:39;;;;;;;16.45;13.05;;;22.10;89.70;;;;;;5016942;28;20022;-82
2021/05/17 01:21:05;;;;;;;17.77;13.57;;;22.10;89.70;;;;;;4999135;28;20026;-81
2021/05/17 01:23:43;;;;;;;19.83;13.65;;;22.10;89.70;;;;;;4983502;28;20049;-81
2021/05/17 01:26:09;;;;;;;18.80;14.00;;;22.10;89.70;;;;;;5017530;28;20194;-82
2021/05/17 01:28:35;;;;;;;17.83;13.55;;;22.10;89.80;;;;;;4983979;28;20134;-82
2021/05/17 01:31:08;;;;;;;16.00;13.15;;;22.10;89.80;;;;;;4999988;28;20125;-81
2021/05/17 01:33:41;;;;;;;17.95;13.60;;;22.10;89.80;;;;;;4998854;28;20121;-82
2021/05/17 01:36:08;;;;;;;17.52;13.60;;;22.10;89.80;;;;;;5016260;28;20084;-81
2021/05/17 01:38:39;;;;;;;16.73;13.77;;;22.10;89.80;;;;;;4998165;28;20057;-82
2021/05/17 01:41:08;;;;;;;18.08;14.07;;;22.10;89.80;;;;;;5016174;28;20102;-82
2021/05/17 01:43:42;;;;;;;18.35;13.90;;;22.10;89.90;;;;;;4998290;28;20037;-82
2021/05/17 01:46:12;;;;;;;17.20;13.25;;;22.10;89.80;;;;;;5015974;28;20022;-82
2021/05/17 01:48:39;;;;;;;16.77;13.55;;;22.10;89.90;;;;;;4998109;28;20224;-81
2021/05/17 01:51:10;;;;;;;18.75;14.38;;;22.10;89.90;;;;;;5015671;28;20087;-81
2021/05/17 01:53:37;;;;;;;22.50;13.82;;;22.10;89.90;;;;;;5015454;28;20049;-82
2021/05/17 01:56:04;;;;;;;19.95;14.75;;;22.10;89.90;;;;;;4997935;28;20061;-82
2021/05/17 01:58:31;;;;;;;17.63;14.00;;;22.10;89.90;;;;;;4981379;28;20030;-82
2021/05/17 02:00:57;;;;;;;17.27;14.13;;;22.10;89.90;;;;;;5015500;28;20120;-82
2021/05/17 02:03:23;;;;;;;18.40;14.18;;;22.10;89.90;;;;;;5015038;28;20025;-82
2021/05/17 02:05:49;;;;;;;19.23;14.88;;;22.10;89.90;;;;;;4997782;28;20045;-82
2021/05/17 02:08:17;;;;;;;16.92;13.85;;;22.10;89.90;;;;;;4997639;28;20336;-81
2021/05/17 02:10:45;;;;;;;18.70;14.32;;;22.10;90.00;;;;;;5015347;28;20421;-81
2021/05/17 02:13:18;;;;;;;17.70;14.32;;;22.10;90.00;;;;;;4997638;28;20340;-82
2021/05/17 02:15:46;;;;;;;17.15;14.15;;;22.10;90.00;;;;;;5015044;28;20022;-82
2021/05/17 02:18:12;;;;;;;18.50;14.80;;;22.10;90.00;;;;;;5014954;28;20026;-82
2021/05/17 02:20:41;;;;;;;18.02;14.60;;;22.10;90.00;;;;;;4997594;28;20381;-82
2021/05/17 02:23:12;;;;;;;18.55;14.50;;;22.10;90.00;;;;;;4997159;28;20398;-82
2021/05/17 02:25:49;;;;;;;19.80;15.02;;;22.10;90.00;;;;;;5015091;28;20033;-82
2021/05/17 02:28:15;;;;;;;18.75;15.73;;;22.10;90.00;;;;;;4997233;28;20591;-82
2021/05/17 02:30:42;;;;;;;20.25;15.60;;;22.10;90.00;;;;;;5014772;28;20026;-82
2021/05/17 02:33:08;;;;;;;17.17;14.13;;;22.10;90.00;;;;;;5014750;28;20034;-82
2021/05/17 02:35:34;;;;;;;19.42;14.98;;;22.10;90.00;;;;;;5014703;28;20029;-82
2021/05/17 02:38:01;;;;;;;18.92;14.95;;;22.10;90.00;;;;;;4997078;28;20083;-82
2021/05/17 02:40:27;;;;;;;18.55;15.05;;;22.10;90.00;;;;;;4996872;28;20403;-82
2021/05/17 02:43:01;;;;;;;19.38;15.07;;;22.10;90.00;;;;;;4996905;28;20053;-82
2021/05/17 02:45:27;;;;;;;18.33;15.45;;;22.10;90.00;;;;;;5014464;28;20105;-82
2021/05/17 02:47:54;;;;;;;18.52;15.13;;;22.10;90.00;;;;;;5014750;28;20158;-82
2021/05/17 02:50:20;;;;;;;19.35;15.45;;;22.10;90.00;;;;;;4997087;28;20067;-82
2021/05/17 02:52:46;;;;;;;19.08;14.77;;;22.10;90.00;;;;;;5014585;28;20112;-82
2021/05/17 02:55:15;;;;;;;18.17;14.85;;;22.10;90.00;;;;;;4996846;28;20117;-82
2021/05/17 02:57:48;;;;;;;18.45;14.32;;;22.10;90.00;;;;;;4996443;28;20030;-82
2021/05/17 03:00:19;;;;;;;17.92;14.18;;;22.10;90.00;;;;;;5014057;28;20056;-82
2021/05/17 03:02:58;;;;;;;17.13;14.50;;;22.10;90.00;;;;;;4996646;28;20061;-82
2021/05/17 03:05:23;;;;;;;18.90;15.20;;;22.10;90.00;;;;;;5014043;28;20052;-82
2021/05/17 03:08:15;;;;;;;16.90;14.50;;;22.10;90.00;;;;;;5014798;28;20018;-82
2021/05/17 03:10:45;;;;;;;19.88;15.05;;;22.10;90.00;;;;;;5011676;28;20037;-82
2021/05/17 03:13:16;;;;;;;17.92;14.45;;;22.10;90.00;;;;;;4981236;28;20400;-82
2021/05/17 03:15:44;;;;;;;19.40;15.10;;;22.10;90.00;;;;;;4982698;28;20487;-82
2021/05/17 03:18:10;;;;;;;20.20;15.65;;;22.10;90.10;;;;;;5018814;28;20045;-82
2021/05/17 03:20:37;;;;;;;17.92;14.57;;;22.10;90.10;;;;;;5019864;28;20018;-83
2021/05/17 03:23:12;;;;;;;18.45;14.95;;;22.10;90.10;;;;;;5037673;28;20065;-80
2021/05/17 03:25:42;;;;;;;20.65;16.05;;;22.10;90.10;;;;;;5003896;28;20034;-82
2021/05/17 03:28:07;;;;;;;19.40;14.55;;;22.10;90.10;;;;;;5018651;28;20025;-81
2021/05/17 03:30:33;;;;;;;19.00;14.70;;;22.10;90.10;;;;;;5005649;28;20075;-82
2021/05/17 03:32:59;;;;;;;18.45;14.63;;;22.00;90.00;;;;;;5000278;28;20026;-82
2021/05/17 03:35:24;;;;;;;20.17;15.63;;;22.10;90.10;;;;;;5000565;28;20034;-82
2021/05/17 03:37:50;;;;;;;17.77;14.05;;;22.00;90.00;;;;;;5001338;28;20044;-82
2021/05/17 03:40:18;;;;;;;17.02;14.10;;;22.10;90.10;;;;;;5003319;28;20030;-81
2021/05/17 03:42:45;;;;;;;18.08;14.43;;;22.10;90.10;;;;;;5020621;28;20049;-80
2021/05/17 03:45:13;;;;;;;18.88;15.60;;;22.10;90.10;;;;;;5019798;28;20029;-81
2021/05/17 03:47:39;;;;;;;17.73;14.50;;;22.10;90.10;;;;;;5017642;28;20363;-81
2021/05/17 03:50:06;;;;;;;19.17;15.13;;;22.10;90.10;;;;;;4998527;28;20436;-81
2021/05/17 03:52:32;;;;;;;19.08;14.52;;;22.10;90.10;;;;;;4995519;28;20034;-82
2021/05/17 03:54:59;;;;;;;18.65;15.30;;;22.10;90.10;;;;;;5013271;28;20079;-82
2021/05/17 03:57:25;;;;;;;19.95;14.63;;;22.00;90.10;;;;;;4979515;28;20048;-82
2021/05/17 03:59:50;;;;;;;18.58;14.80;;;22.10;90.10;;;;;;4979321;28;20029;-82
2021/05/17 04:02:20;;;;;;;17.77;14.27;;;22.00;90.10;;;;;;4995715;28;20466;-82
2021/05/17 04:05:03;;;;;;;17.67;14.30;;;22.00;90.10;;;;;;4995932;28;20037;-81
2021/05/17 04:15:25;;;;;;;17.47;14.10;;;22.00;90.10;;;;;;4998084;28;20104;-82
2021/05/17 04:17:51;;;;;;;18.27;14.88;;;22.00;90.10;;;;;;5012554;28;20487;-82
2021/05/17 04:20:17;;;;;;;20.17;14.60;;;22.00;90.20;;;;;;4979539;28;20029;-82
2021/05/17 04:22:42;;;;;;;16.38;13.90;;;22.00;90.20;;;;;;4995520;28;20030;-82
2021/05/17 04:25:09;;;;;;;17.27;14.23;;;22.00;90.20;;;;;;5010677;28;20050;-82
2021/05/17 04:27:35;;;;;;;18.20;14.57;;;22.00;90.20;;;;;;5010402;28;20081;-83
2021/05/17 04:30:02;;;;;;;17.02;13.73;;;22.00;90.20;;;;;;5012636;28;20069;-82
2021/05/17 04:32:28;;;;;;;17.50;14.38;;;22.00;90.20;;;;;;5012287;28;20056;-82
2021/05/17 04:34:53;;;;;;;17.50;13.80;;;22.00;90.20;;;;;;4994806;28;20065;-81
2021/05/17 04:37:20;;;;;;;16.60;13.68;;;22.00;90.20;;;;;;5012792;28;20417;-82
2021/05/17 04:39:46;;;;;;;16.42;13.18;;;22.00;90.40;;;;;;4978895;28;20452;-82
2021/05/17 04:42:11;;;;;;;16.73;13.40;;;22.00;90.20;;;;;;4978750;28;20120;-82
2021/05/17 04:44:37;;;;;;;16.85;13.48;;;22.00;90.20;;;;;;4994831;28;20029;-81
2021/05/17 04:47:06;;;;;;;17.48;14.18;;;22.00;90.20;;;;;;4995219;28;20022;-81
2021/05/17 04:49:31;;;;;;;15.75;13.68;;;22.00;90.20;;;;;;4994866;28;20034;-81
2021/05/17 04:51:57;;;;;;;16.27;13.23;;;22.00;90.20;;;;;;4978476;28;20063;-82
2021/05/17 04:54:22;;;;;;;16.33;13.88;;;22.00;90.20;;;;;;4978724;28;20038;-82
2021/05/17 04:56:48;;;;;;;15.45;13.00;;;22.00;90.20;;;;;;4994777;28;20030;-81
2021/05/17 04:59:14;;;;;;;16.52;13.27;;;22.00;90.20;;;;;;4995311;28;20026;-81
2021/05/17 05:01:40;;;;;;;16.17;13.02;;;22.00;90.20;;;;;;4994626;28;20369;-82
2021/05/17 05:04:05;;;;;;;15.82;13.68;;;22.00;90.20;;;;;;5012241;28;20037;-81
2021/05/17 05:06:31;;;;;;;16.65;12.82;;;22.00;90.20;;;;;;4994695;28;20365;-82
2021/05/17 05:08:57;;;;;;;16.50;13.10;;;22.00;90.20;;;;;;4994512;28;20032;-82
2021/05/17 05:11:23;;;;;;;15.15;12.48;;;22.00;90.20;;;;;;5012262;28;20026;-81
2021/05/17 05:13:49;;;;;;;14.70;12.05;;;22.00;90.20;;;;;;5012006;28;20036;-81
2021/05/17 05:16:15;;;;;;;15.70;11.52;;;22.00;90.20;;;;;;4994765;28;20038;-81
2021/05/17 05:18:40;;;;;;;15.88;13.32;;;22.00;90.20;;;;;;4994501;28;20080;-81
2021/05/17 05:21:06;;;;;;;16.67;13.23;;;22.00;90.20;;;;;;4994620;28;20117;-81
2021/05/17 05:23:31;;;;;;;14.75;12.75;;;22.00;90.20;;;;;;4994640;28;20036;-80
2021/05/17 05:31:20;;;;;;;15.40;12.65;;;22.00;90.30;;;;;;4990968;28;20472;-80
2021/05/17 05:33:45;;;;;;;14.80;11.88;;;22.00;90.30;;;;;;4978795;28;20068;-81
2021/05/17 05:36:11;;;;;;;14.02;11.65;;;22.00;90.30;;;;;;4994651;28;20468;-81
2021/05/17 05:38:37;;;;;;;13.13;11.27;;;22.00;90.30;;;;;;4994518;28;20034;-81
2021/05/17 05:41:02;;;;;;;14.32;12.00;;;22.00;90.30;;;;;;5012217;28;20037;-81
2021/05/17 05:43:28;;;;;;;14.55;11.13;;;22.00;90.30;;;;;;5015449;28;20383;-80
2021/05/17 05:45:53;;;;;;;12.20;10.70;;;22.00;90.30;;;;;;4982960;28;20037;-80
2021/05/17 05:48:19;;;;;;;13.48;11.02;;;22.00;90.30;;;;;;5012874;28;20030;-81
2021/05/17 05:50:46;;;;;;;15.18;11.77;;;22.00;90.30;;;;;;5020739;28;20034;-82
2021/05/17 05:53:13;;;;;;;14.77;11.63;;;22.00;90.30;;;;;;5035189;28;20085;-82
2021/05/17 05:55:39;;;;;;;12.75;10.43;;;22.00;90.30;;;;;;5020046;28;20014;-80
2021/05/17 05:58:05;;;;;;;12.55;11.10;;;22.00;90.30;;;;;;5039302;28;20036;-82
2021/05/17 06:00:31;;;;;;;14.57;11.18;;;22.00;90.30;;;;;;5018647;28;20034;-82
2021/05/17 06:03:00;;;;;;;13.15;11.15;;;22.00;90.30;;;;;;5022973;28;20041;-82
2021/05/17 06:05:26;;;;;;;14.05;11.50;;;22.00;90.30;;;;;;5021139;28;20029;-82
2021/05/17 06:07:53;;;;;;;13.45;11.48;;;22.00;90.30;;;;;;5009116;28;20466;-82
2021/05/17 06:10:19;;;;;;;13.93;11.00;;;22.00;90.30;;;;;;5018459;28;20056;-81
2021/05/17 06:12:49;;;;;;;15.30;12.23;;;22.00;90.30;;;;;;5015994;28;20030;-82
2021/05/17 06:15:18;;;;;;;14.82;12.00;;;22.00;90.40;;;;;;4998096;28;20111;-81
2021/05/17 06:17:44;;;;;;;13.00;11.20;;;22.00;90.40;;;;;;5015103;28;20118;-82
2021/05/17 06:20:11;;;;;;;12.38;10.98;;;22.00;90.40;;;;;;5015467;28;20037;-81
2021/05/17 06:22:38;;;;;;;14.82;11.40;;;22.00;90.40;;;;;;4997987;28;20026;-81
2021/05/17 06:25:12;;;;;;;15.52;12.25;;;22.00;90.40;;;;;;4997487;28;20029;-81
2021/05/17 06:27:39;;;;;;;14.43;11.98;;;22.00;90.40;;;;;;5014992;28;20092;-81
2021/05/17 06:30:08;;;;;;;15.23;12.20;;;22.00;90.40;;;;;;4997190;28;20114;-81
2021/05/17 06:32:35;;;;;;;15.75;12.65;;;22.00;90.60;;;;;;4980994;28;20096;-81
2021/05/17 06:35:03;;;;;;;14.88;12.48;;;22.00;90.40;;;;;;5014443;28;20124;-80
2021/05/17 06:37:29;;;;;;;15.35;12.25;;;22.00;90.40;;;;;;5014915;28;20076;-81
2021/05/17 06:39:54;;;;;;;15.45;13.07;;;22.00;90.40;;;;;;4996865;28;20069;-81
2021/05/17 06:42:20;;;;;;;16.58;12.65;;;22.00;90.40;;;;;;4981057;28;20058;-81
2021/05/17 06:44:46;;;;;;;17.73;13.63;;;22.00;90.40;;;;;;4996763;28;20041;-81
2021/05/17 06:47:12;;;;;;;15.77;13.05;;;22.00;90.40;;;;;;4996881;28;20034;-81
2021/05/17 06:49:39;;;;;;;16.92;13.73;;;22.00;90.40;;;;;;4996976;28;20336;-81
2021/05/17 06:52:06;;;;;;;16.10;13.18;;;22.00;90.40;;;;;;4980532;28;20108;-81
2021/05/17 06:54:33;;;;;;;17.60;14.25;;;22.00;90.40;;;;;;4980743;28;20454;-80
2021/05/17 06:57:24;;;;;;;18.33;14.43;;;22.00;90.40;;;;;;4996691;28;20030;-81
2021/05/17 06:59:47;;;;;;;17.48;14.48;;;22.00;90.40;;;;;;5013222;28;20049;-81
2021/05/17 07:02:22;;;;;;;18.33;15.02;;;22.00;90.40;;;;;;4996779;28;20033;-81
2021/05/17 07:04:49;;;;;;;17.45;14.48;;;22.00;90.50;;;;;;5014075;28;20036;-81
2021/05/17 07:07:25;;;;;;;17.33;14.18;;;22.00;90.50;;;;;;4996831;28;20479;-81
2021/05/17 07:12:35;;;;;;;18.50;14.88;;;22.00;90.50;;;;;;4999484;28;20056;-81
2021/05/17 07:15:05;;;;;;;19.70;15.20;;;22.00;90.50;;;;;;4980334;28;20052;-82
2021/05/17 07:17:31;;;;;;;21.08;16.77;;;22.00;90.50;;;;;;4997042;28;20052;-81
2021/05/17 07:19:57;;;;;;;20.48;16.67;;;22.00;90.50;;;;;;5013485;28;20420;-81
2021/05/17 07:25:07;;;;;;;21.55;17.40;;;22.00;90.50;;;;;;5013720;28;20061;-82
2021/05/17 07:27:35;;;;;;;20.80;17.77;;;22.00;90.50;;;;;;5014092;28;20080;-81
2021/05/17 07:30:03;;;;;;;22.52;18.05;;;22.00;90.50;;;;;;4996527;28;20040;-82
2021/05/17 07:32:29;;;;;;;21.48;17.00;;;22.00;90.60;;;;;;4996050;28;20033;-82
2021/05/17 07:34:55;;;;;;;23.65;18.02;;;22.00;90.60;;;;;;4979697;28;20515;-82
2021/05/17 07:37:21;;;;;;;24.10;19.42;;;21.90;90.60;;;;;;4996476;28;20030;-81
2021/05/17 07:39:47;;;;;;;25.50;19.17;;;22.00;90.60;;;;;;4996087;28;20033;-81
2021/05/17 07:42:12;;;;;;;23.63;18.67;;;21.90;90.60;;;;;;4979920;28;20045;-81
2021/05/17 07:44:38;;;;;;;21.65;18.08;;;21.90;90.60;;;;;;4996237;28;20033;-80
2021/05/17 07:47:04;;;;;;;23.83;19.25;;;21.90;90.60;;;;;;5013231;28;20136;-81
2021/05/17 07:49:52;;;;;;;23.08;18.33;;;22.00;90.60;;;;;;4979661;28;20030;-81
2021/05/17 07:52:16;;;;;;;22.73;17.98;;;21.90;90.60;;;;;;5012398;28;20034;-81
2021/05/17 07:54:41;;;;;;;23.67;19.35;;;21.90;90.70;;;;;;4995771;28;20088;-82
2021/05/17 07:57:07;;;;;;;23.00;19.00;;;21.90;90.70;;;;;;4995556;28;20026;-82
2021/05/17 07:59:33;;;;;;;22.48;18.50;;;21.90;90.70;;;;;;4996139;28;20034;-82
2021/05/17 08:02:00;;;;;;;22.48;18.33;;;21.90;90.70;;;;;;4979636;28;20133;-82
2021/05/17 08:04:25;;;;;;;23.00;18.40;;;22.00;90.70;;;;;;4980014;28;20047;-81
2021/05/17 08:06:52;;;;;;;21.00;17.15;;;22.00;90.70;;;;;;4979103;28;20034;-82
2021/05/17 08:09:18;;;;;;;22.83;17.88;;;22.00;90.70;;;;;;4995988;28;20026;-81
2021/05/17 08:11:45;;;;;;;23.25;18.52;;;21.90;90.60;;;;;;4995630;28;20121;-82
2021/05/17 08:14:11;;;;;;;22.15;18.30;;;22.00;90.70;;;;;;4995875;28;20037;-82
2021/05/17 08:16:37;;;;;;;22.73;18.27;;;21.90;90.60;;;;;;4996117;28;20129;-82
2021/05/17 08:19:05;;;;;;;22.50;17.15;;;21.90;90.60;;;;;;4995980;28;20033;-82
2021/05/17 08:21:31;;;;;;;22.15;17.13;;;22.00;90.70;;;;;;4981520;28;20034;-81
2021/05/17 08:23:57;;;;;;;20.77;17.15;;;22.00;90.70;;;;;;4997567;28;20092;-82
2021/05/17 08:26:24;;;;;;;21.67;16.80;;;22.00;90.70;;;;;;5000369;28;20041;-80
2021/05/17 08:28:50;;;;;;;21.48;17.13;;;22.00;90.70;;;;;;5016580;28;20025;-81
2021/05/17 08:31:18;;;;;;;23.02;18.48;;;22.00;90.70;;;;;;5017999;28;20060;-84
2021/05/17 08:33:44;;;;;;;20.73;16.42;;;22.00;90.70;;;;;;5004063;28;20034;-81
2021/05/17 08:36:10;;;;;;;19.75;16.27;;;22.00;90.70;;;;;;5020385;28;20087;-82
2021/05/17 08:38:36;;;;;;;18.33;15.18;;;22.00;90.70;;;;;;4998763;28;20030;-81
2021/05/17 08:41:03;;;;;;;20.40;16.55;;;22.00;90.80;;;;;;5017529;28;20046;-81
2021/05/17 08:43:29;;;;;;;20.13;16.20;;;22.00;90.80;;;;;;4998713;28;20029;-81
2021/05/17 08:45:56;;;;;;;20.35;15.75;;;22.00;91.00;;;;;;5013413;28;20164;-82
2021/05/17 08:48:22;;;;;;;18.65;15.38;;;22.00;90.80;;;;;;4995196;28;20037;-82
2021/05/17 08:50:48;;;;;;;21.70;16.08;;;22.00;90.80;;;;;;4995304;28;20065;-81
2021/05/17 08:53:13;;;;;;;19.33;15.50;;;22.00;90.80;;;;;;4979163;28;20151;-82
2021/05/17 08:55:40;;;;;;;18.95;14.85;;;22.00;90.90;;;;;;4995384;28;20483;-82
2021/05/17 08:58:06;;;;;;;18.05;14.52;;;22.00;90.90;;;;;;4978890;28;20030;-82
2021/05/17 09:00:32;;;;;;;18.65;14.27;;;22.00;90.90;;;;;;4995489;28;20030;-81
2021/05/17 09:02:58;;;;;;;16.90;14.02;;;22.00;90.90;;;;;;4979077;28;20072;-81
2021/05/17 09:05:27;;;;;;;18.88;14.02;;;22.00;90.90;;;;;;4979040;28;20029;-81
2021/05/17 09:07:55;;;;;;;17.33;13.70;;;22.00;91.00;;;;;;4978272;28;20096;-82
2021/05/17 09:10:31;;;;;;;16.10;13.25;;;22.00;91.00;;;;;;5012480;28;20101;-80
2021/05/17 09:13:10;;;;;;;16.13;12.65;;;22.00;91.00;;;;;;4995233;28;20058;-81
2021/05/17 09:15:51;;;;;;;15.10;12.57;;;22.00;91.10;;;;;;5012630;28;20022;-82
2021/05/17 09:18:30;;;;;;;17.50;13.35;;;22.00;91.30;;;;;;4996261;28;20041;-81
2021/05/17 09:21:05;;;;;;;15.48;12.82;;;22.00;91.60;;;;;;4998537;28;20133;-82
2021/05/17 09:23:35;;;;;;;15.48;12.60;;;22.00;91.90;;;;;;4998749;28;20084;-85
2021/05/17 09:26:10;;;;;;;14.30;11.45;;;22.00;92.10;;;;;;5016240;28;20030;-81
2021/05/17 09:28:45;;;;;;;14.40;10.98;;;22.00;92.20;;;;;;5016239;28;20026;-81
2021/05/17 09:31:18;;;;;;;15.88;11.63;;;22.00;92.30;;;;;;5016330;28;20105;-81
2021/05/17 09:33:45;;;;;;;13.73;10.48;;;22.00;92.30;;;;;;4982568;28;20037;-80
2021/05/17 09:36:37;;;;;;;12.52;10.15;;;22.00;92.20;;;;;;4998696;28;20460;-81
2021/05/17 09:39:15;;;;;;;11.38;9.48;;;22.10;92.20;;;;;;4998820;28;20149;-80
2021/05/17 09:41:41;;;;;;;11.38;9.40;;;22.10;92.00;;;;;;4999378;28;20022;-82
2021/05/17 09:44:08;;;;;;;11.30;9.38;;;22.10;91.80;;;;;;5015900;28;20022;-82
2021/05/17 09:47:01;;;;;;;10.65;8.40;;;22.10;91.60;;;;;;4998919;28;20510;-81
2021/05/17 09:49:31;;;;;;;11.75;9.15;;;22.10;91.40;;;;;;5015669;28;20030;-81
2021/05/17 09:52:03;;;;;;;10.35;8.50;;;22.10;91.30;;;;;;4982743;28;20026;-80
2021/05/17 09:54:29;;;;;;;11.23;8.73;;;22.10;91.30;;;;;;4998002;28;20096;-81
2021/05/17 09:57:07;;;;;;;11.07;9.18;;;22.10;91.20;;;;;;4982167;28;20472;-80
2021/05/17 09:59:54;;;;;;;11.43;8.70;;;22.10;91.20;;;;;;4998265;28;20033;-81
2021/05/17 10:02:29;;;;;;;9.63;8.43;;;22.20;91.20;;;;;;4997824;28;20029;-81
2021/05/17 10:04:56;;;;;;;9.80;8.20;;;22.20;91.20;;;;;;5015699;28;20029;-82
2021/05/17 10:07:22;;;;;;;10.25;8.30;;;22.20;91.20;;;;;;4998270;28;20108;-83
2021/05/17 10:09:48;;;;;;;10.57;8.80;;;22.20;91.10;;;;;;4982021;28;20121;-84
2021/05/17 10:12:14;;;;;;;9.07;8.07;;;22.20;91.10;;;;;;5015025;28;20053;-83
2021/05/17 10:14:40;;;;;;;10.05;8.32;;;22.20;91.10;;;;;;4997596;28;20548;-83
2021/05/17 10:17:05;;;;;;;9.13;8.00;;;22.20;91.00;;;;;;4997849;28;20065;-84
2021/05/17 10:19:32;;;;;;;8.93;7.35;;;22.20;91.00;;;;;;4997532;28;20038;-83
2021/05/17 10:21:59;;;;;;;8.38;7.35;;;22.30;91.00;;;;;;4997801;28;20084;-84
2021/05/17 10:24:24;;;;;;;9.15;7.72;;;22.20;90.90;;;;;;4981496;28;20033;-84
2021/05/17 10:26:50;;;;;;;9.23;7.50;;;22.20;90.90;;;;;;4994804;28;20138;-84
2021/05/17 10:29:16;;;;;;;7.72;6.93;;;22.30;90.90;;;;;;4994097;28;20031;-83
2021/05/17 10:31:53;;;;;;;7.75;6.47;;;22.30;90.90;;;;;;4994983;28;20033;-83
2021/05/17 10:34:18;;;;;;;7.78;6.97;;;22.30;90.90;;;;;;4995544;28;20034;-84
2021/05/17 10:36:49;;;;;;;7.90;6.38;;;22.30;90.90;;;;;;4994743;28;20037;-84
2021/05/17 10:39:15;;;;;;;8.13;6.20;;;22.30;91.00;;;;;;4996324;28;20109;-84
2021/05/17 10:42:17;;;;;;;7.28;6.20;;;22.30;91.00;;;;;;4996956;28;20069;-83
2021/05/17 10:48:15;;;;;;;6.90;5.70;;;22.30;91.00;;;;;;4995600;28;20060;-81
2021/05/17 10:50:43;;;;;;;7.75;6.35;;;22.30;91.00;;;;;;4985161;28;20081;-82
2021/05/17 10:53:58;;;;;;;5.65;5.05;;;22.30;91.00;;;;;;4993759;28;20039;-83
2021/05/17 10:56:54;;;;;;;7.80;5.80;;;22.40;91.00;;;;;;4936711;29;20043;-82
2021/05/17 11:02:44;;;;;;;8.43;6.05;;;22.30;91.10;;;;;;4996034;28;20045;-83
2021/05/17 11:05:21;;;;;;;7.72;6.22;;;22.30;91.20;;;;;;5006440;28;20034;-82
2021/05/17 11:07:48;;;;;;;8.38;6.22;;;22.30;91.30;;;;;;5016468;28;20037;-83
2021/05/17 11:10:26;;;;;;;8.98;6.55;;;22.30;91.30;;;;;;5016971;28;20026;-86
2021/05/17 11:12:51;;;;;;;7.68;5.30;;;22.30;91.30;;;;;;5017089;28;20057;-82
2021/05/17 11:15:19;;;;;;;6.90;4.95;;;22.30;91.20;;;;;;4997353;28;20117;-83
2021/05/17 11:17:54;;;;;;;6.03;4.72;;;22.30;91.20;;;;;;4999481;28;20030;-82
2021/05/17 11:20:38;;;;;;;5.75;4.85;;;22.30;91.20;;;;;;4997976;28;20030;-82
2021/05/17 11:23:38;;;;;;;6.18;4.60;;;22.30;91.20;;;;;;4999243;28;20110;-82
2021/05/17 11:26:12;;;;;;;5.68;4.60;;;22.30;91.20;;;;;;4987985;28;20508;-83
2021/05/17 11:28:38;;;;;;;6.10;4.35;;;22.40;91.20;;;;;;5014910;28;20038;-82
2021/05/17 11:31:27;;;;;;;5.95;4.22;;;22.40;91.10;;;;;;5014072;28;20029;-82
2021/05/17 11:33:57;;;;;;;5.05;3.67;;;22.30;91.10;;;;;;5014331;28;20534;-82
2021/05/17 11:36:28;;;;;;;5.07;3.78;;;22.40;91.10;;;;;;4996173;28;20049;-82
2021/05/17 11:39:18;;;;;;;4.50;3.47;;;22.40;91.10;;;;;;4995959;28;20113;-82
2021/05/17 11:41:57;;;;;;;3.78;3.42;;;22.40;91.00;;;;;;5013089;28;20120;-82
2021/05/17 11:44:24;;;;;;;3.47;2.90;;;22.40;91.00;;;;;;4996216;28;20029;-82
2021/05/17 11:46:54;;;;;;;4.63;3.55;;;22.40;91.30;;;;;;4980101;28;20125;-81
2021/05/17 11:49:22;;;;;;;4.70;3.10;;;22.40;91.00;;;;;;5013783;28;20026;-83
2021/05/17 11:51:53;;;;;;;3.67;2.70;;;22.50;91.00;;;;;;4996194;28;20496;-83
2021/05/17 11:54:21;;;;;;;3.88;2.88;;;22.40;90.90;;;;;;5013411;28;20034;-83
2021/05/17 11:56:49;;;;;;;2.95;2.65;;;22.40;90.90;;;;;;5013262;28;20026;-82
2021/05/17 11:59:20;;;;;;;3.25;2.70;;;22.40;90.90;;;;;;5013722;28;20068;-83
2021/05/17 12:01:48;;;;;;;3.47;2.78;;;22.40;90.90;;;;;;5013525;28;20026;-83
2021/05/17 12:04:20;;;;;;;3.55;2.90;;;22.40;90.90;;;;;;4996032;28;20030;-84
2021/05/17 12:06:48;;;;;;;4.18;2.78;;;22.40;90.90;;;;;;4995625;28;20053;-82
2021/05/17 12:09:38;;;;;;;4.15;2.78;;;22.40;90.80;;;;;;5013425;28;20030;-83
2021/05/17 12:12:18;;;;;;;4.63;3.03;;;22.40;90.80;;;;;;4995678;28;20116;-83
2021/05/17 12:14:47;;;;;;;3.63;3.15;;;22.40;90.80;;;;;;4995337;28;20117;-83
2021/05/17 12:17:27;;;;;;;3.53;2.55;;;22.40;90.80;;;;;;4995714;28;20029;-84
2021/05/17 12:19:57;;;;;;;2.30;2.10;;;22.40;90.80;;;;;;5012927;28;20025;-83
2021/05/17 12:22:27;;;;;;;2.30;2.00;;;22.40;90.80;;;;;;5012874;28;20116;-84
2021/05/17 12:24:57;;;;;;;2.63;2.08;;;22.50;90.80;;;;;;4996035;28;20029;-83
2021/05/17 12:27:24;;;;;;;2.75;2.10;;;22.50;90.80;;;;;;5012641;28;20050;-84
2021/05/17 12:30:05;;;;;;;2.00;1.80;;;22.50;90.80;;;;;;4995702;28;20042;-84
2021/05/17 12:32:37;;;;;;;2.25;1.70;;;22.50;90.80;;;;;;4995251;28;20091;-83
2021/05/17 12:35:12;;;;;;;2.17;1.52;;;22.50;90.80;;;;;;4995431;28;20034;-83
2021/05/17 12:37:49;;;;;;;1.95;1.63;;;22.50;90.80;;;;;;5012883;28;20041;-84
2021/05/17 12:40:25;;;;;;;2.45;1.85;;;22.50;90.80;;;;;;5013031;28;20026;-83
2021/05/17 12:43:21;;;;;;;2.25;1.80;;;22.50;90.80;;;;;;5013406;28;20029;-83
2021/05/17 12:45:47;;;;;;;2.72;2.15;;;22.50;90.70;;;;;;4996353;28;20034;-83
2021/05/17 12:48:25;;;;;;;2.15;1.85;;;22.50;90.80;;;;;;5013169;28;20543;-83
2021/05/17 12:50:53;;;;;;;2.75;1.92;;;22.50;90.80;;;;;;5013320;28;20037;-83
2021/05/17 12:53:23;;;;;;;2.38;1.73;;;22.50;90.80;;;;;;4998448;28;20033;-83
2021/05/17 12:55:50;;;;;;;1.95;1.60;;;22.50;90.80;;;;;;4983509;28;20045;-83
2021/05/17 12:58:35;;;;;;;1.70;1.60;;;22.50;90.80;;;;;;4999351;28;20030;-82
2021/05/17 13:01:07;;;;;;;2.03;1.38;;;22.50;90.70;;;;;;5000238;28;20018;-83
2021/05/17 13:03:35;;;;;;;1.52;1.40;;;22.50;90.70;;;;;;4999952;28;20037;-84
2021/05/17 13:06:12;;;;;;;2.00;1.52;;;22.50;90.70;;;;;;5000375;28;20022;-83